createdAt,value
2022-09-15T00:01:00.924Z,10.37
2022-09-15T00:03:28.577Z,9.07
2022-09-15T00:05:55.695Z,9.60
2022-09-15T00:08:23.344Z,13.93
2022-09-15T00:10:55.025Z,11.13
2022-09-15T00:13:22.556Z,11.17
2022-09-15T00:15:49.704Z,8.33
2022-09-15T00:18:16.816Z,9.00
2022-09-15T00:20:44.569Z,11.23
2022-09-15T00:23:12.665Z,12.27
2022-09-15T00:25:46.940Z,9.07
2022-09-15T00:28:15.190Z,9.93
2022-09-15T00:30:43.794Z,7.27
2022-09-15T00:33:11.100Z,12.07
2022-09-15T00:35:41.542Z,9.30
2022-09-15T00:38:09.861Z,10.50
2022-09-15T00:40:49.014Z,8.20
2022-09-15T00:43:16.613Z,8.93
2022-09-15T00:45:44.931Z,12.80
2022-09-15T00:48:17.738Z,8.27
2022-09-15T00:50:47.592Z,10.20
2022-09-15T00:53:15.218Z,11.07
2022-09-15T00:55:47.469Z,15.27
2022-09-15T00:58:25.738Z,11.70
2022-09-15T01:00:57.912Z,9.90
2022-09-15T01:03:25.533Z,15.13
2022-09-15T01:05:55.325Z,10.00
2022-09-15T01:08:27.364Z,12.33
2022-09-15T01:10:54.488Z,11.07
2022-09-15T01:13:21.612Z,10.17
2022-09-15T01:16:12.977Z,12.90
2022-09-15T01:18:43.118Z,12.20
2022-09-15T01:21:19.037Z,11.43
2022-09-15T01:23:46.200Z,13.40
2022-09-15T01:26:19.463Z,9.63
2022-09-15T01:28:46.530Z,14.00
2022-09-15T01:31:22.501Z,8.33
2022-09-15T01:34:07.204Z,11.73
2022-09-15T01:36:56.528Z,11.47
2022-09-15T01:39:27.972Z,10.03
2022-09-15T01:41:57.937Z,11.20
2022-09-15T01:44:39.859Z,13.30
2022-09-15T01:47:08.595Z,9.73
2022-09-15T01:49:38.713Z,13.17
2022-09-15T01:52:05.961Z,13.27
2022-09-15T01:54:49.067Z,10.63
2022-09-15T01:57:22.859Z,11.17
2022-09-15T01:59:50.607Z,10.17
2022-09-15T02:02:29.825Z,10.53
2022-09-15T02:05:00.891Z,9.77
2022-09-15T02:07:40.142Z,8.37
2022-09-15T02:10:22.669Z,8.57
2022-09-15T02:13:29.083Z,9.53
2022-09-15T02:15:58.300Z,8.90
2022-09-15T02:18:32.825Z,9.57
2022-09-15T02:21:08.072Z,10.00
2022-09-15T02:23:37.750Z,12.93
2022-09-15T02:26:08.846Z,9.10
2022-09-15T02:28:38.577Z,9.87
2022-09-15T02:31:07.404Z,9.73
2022-09-15T02:33:37.591Z,9.40
2022-09-15T02:36:05.036Z,8.80
2022-09-15T02:38:35.584Z,9.07
2022-09-15T02:41:03.417Z,10.97
2022-09-15T02:43:31.250Z,10.60
2022-09-15T02:45:58.496Z,10.33
2022-09-15T02:48:25.624Z,11.30
2022-09-15T02:50:52.904Z,10.90
2022-09-15T02:53:20.032Z,10.13
2022-09-15T02:55:47.090Z,9.57
2022-09-15T02:58:14.207Z,13.07
2022-09-15T03:00:42.566Z,10.77
2022-09-15T03:03:09.727Z,12.33
2022-09-15T03:05:36.854Z,9.03
2022-09-15T03:08:04.010Z,9.03
2022-09-15T03:10:32.726Z,10.80
2022-09-15T03:12:59.992Z,10.77
2022-09-15T03:15:27.613Z,8.30
2022-09-15T03:17:55.120Z,9.67
2022-09-15T03:20:24.060Z,10.40
2022-09-15T03:22:51.217Z,10.43
2022-09-15T03:25:18.413Z,10.40
2022-09-15T03:27:45.698Z,10.80
2022-09-15T03:30:12.986Z,11.87
2022-09-15T03:32:40.461Z,13.97
2022-09-15T03:35:07.902Z,9.97
2022-09-15T03:37:35.365Z,12.87
2022-09-15T03:40:03.830Z,12.93
2022-09-15T03:42:31.057Z,11.50
2022-09-15T03:44:58.161Z,10.50
2022-09-15T03:47:25.399Z,12.30
2022-09-15T03:49:52.491Z,10.93
2022-09-15T03:52:19.669Z,9.47
2022-09-15T03:54:48.705Z,14.23
2022-09-15T03:57:15.827Z,11.87
2022-09-15T03:59:42.933Z,10.17
2022-09-15T04:02:10.103Z,8.37
2022-09-15T04:04:37.261Z,12.63
2022-09-15T04:07:04.495Z,7.93
2022-09-15T04:09:31.659Z,11.23
2022-09-15T04:11:58.798Z,6.53
2022-09-15T04:14:25.886Z,7.67
2022-09-15T04:16:53.002Z,10.90
2022-09-15T04:19:20.178Z,7.43
2022-09-15T04:21:48.114Z,6.50
2022-09-15T04:24:15.719Z,7.53
2022-09-15T04:26:42.887Z,6.13
2022-09-15T04:29:14.603Z,8.93
2022-09-15T04:31:41.818Z,9.87
2022-09-15T04:34:10.175Z,11.47
2022-09-15T04:36:37.666Z,9.47
2022-09-15T04:39:06.581Z,15.50
2022-09-15T04:41:33.716Z,12.80
2022-09-15T04:44:00.903Z,10.57
2022-09-15T04:46:28.078Z,5.43
2022-09-15T04:48:56.219Z,6.23
2022-09-15T04:51:23.613Z,4.70
2022-09-15T04:53:51.720Z,4.63
2022-09-15T04:56:20.423Z,4.13
2022-09-15T04:58:51.934Z,5.33
2022-09-15T05:01:26.280Z,1.40
2022-09-15T05:03:53.524Z,3.60
2022-09-15T05:06:22.142Z,4.20
2022-09-15T05:08:49.995Z,3.53
2022-09-15T05:11:17.233Z,3.00
2022-09-15T05:13:44.405Z,2.40
2022-09-15T05:16:13.437Z,5.60
2022-09-15T05:18:44.218Z,2.37
2022-09-15T05:21:13.309Z,3.63
2022-09-15T05:23:40.686Z,3.77
2022-09-15T05:26:09.226Z,1.40
2022-09-15T05:28:37.349Z,7.57
2022-09-15T05:31:08.772Z,2.43
2022-09-15T05:33:36.169Z,1.73
2022-09-15T05:36:03.645Z,0.97
2022-09-15T05:38:31.741Z,5.07
2022-09-15T05:41:09.315Z,5.10
2022-09-15T05:43:37.383Z,1.10
2022-09-15T05:46:05.047Z,3.27
2022-09-15T05:48:32.280Z,3.10
2022-09-15T05:50:59.476Z,4.47
2022-09-15T05:53:26.714Z,3.57
2022-09-15T05:55:57.879Z,2.40
2022-09-15T05:58:25.346Z,4.90
2022-09-15T06:00:53.423Z,5.80
2022-09-15T06:03:21.056Z,8.30
2022-09-15T06:05:48.589Z,9.23
2022-09-15T06:08:15.808Z,11.50
2022-09-15T06:10:43.204Z,12.93
2022-09-15T06:13:10.317Z,12.27
2022-09-15T06:15:37.400Z,11.93
2022-09-15T06:18:04.572Z,9.00
2022-09-15T06:20:31.702Z,9.63
2022-09-15T06:22:59.491Z,9.87
2022-09-15T06:25:26.624Z,8.87
2022-09-15T06:27:54.328Z,8.37
2022-09-15T06:30:21.410Z,8.30
2022-09-15T06:32:49.322Z,5.30
2022-09-15T06:35:16.696Z,5.90
2022-09-15T06:37:43.793Z,5.40
2022-09-15T06:40:11.234Z,4.47
2022-09-15T06:42:38.456Z,4.03
2022-09-15T06:45:05.810Z,4.00
2022-09-15T06:47:34.114Z,2.73
2022-09-15T06:50:01.610Z,4.43
2022-09-15T06:52:28.799Z,5.27
2022-09-15T06:54:55.973Z,5.07
2022-09-15T06:57:23.077Z,7.97
2022-09-15T06:59:50.194Z,8.03
2022-09-15T07:02:17.371Z,10.10
2022-09-15T07:04:44.582Z,7.60
2022-09-15T07:07:11.766Z,8.97
2022-09-15T07:09:41.138Z,8.37
2022-09-15T07:12:08.649Z,9.43
2022-09-15T07:14:35.756Z,10.23
2022-09-15T07:17:02.924Z,9.10
2022-09-15T07:19:30.077Z,9.50
2022-09-15T07:21:57.164Z,9.43
2022-09-15T07:24:24.280Z,8.00
2022-09-15T07:26:52.095Z,9.83
2022-09-15T07:29:19.226Z,11.33
2022-09-15T07:31:46.426Z,10.57
2022-09-15T07:34:13.565Z,9.03
2022-09-15T07:36:40.650Z,13.37
2022-09-15T07:39:07.744Z,12.17
2022-09-15T07:41:35.026Z,11.30
2022-09-15T07:44:02.265Z,11.23
2022-09-15T07:46:31.834Z,15.77
2022-09-15T07:48:59.096Z,13.30
2022-09-15T07:51:26.666Z,11.67
2022-09-15T07:53:54.180Z,10.17
2022-09-15T07:56:21.887Z,14.83
2022-09-15T07:58:49.180Z,11.20
2022-09-15T08:01:17.090Z,11.33
2022-09-15T08:03:46.225Z,12.23
2022-09-15T08:06:13.682Z,10.70
2022-09-15T08:08:41.698Z,11.23
2022-09-15T08:11:09.922Z,11.67
2022-09-15T08:13:37.355Z,13.10
2022-09-15T08:16:12.770Z,13.80
2022-09-15T08:18:41.906Z,9.83
2022-09-15T08:21:10.191Z,13.17
2022-09-15T08:23:37.525Z,16.10
2022-09-15T08:26:13.636Z,12.97
2022-09-15T08:28:41.383Z,12.00
2022-09-15T08:31:10.096Z,14.30
2022-09-15T08:33:39.765Z,14.13
2022-09-15T08:36:13.577Z,14.57
2022-09-15T08:38:41.281Z,18.47
2022-09-15T08:41:11.962Z,13.30
2022-09-15T08:43:45.637Z,18.23
2022-09-15T08:46:16.702Z,11.10
2022-09-15T08:48:49.007Z,16.43
2022-09-15T08:51:20.071Z,16.97
2022-09-15T08:53:49.548Z,12.47
2022-09-15T08:56:18.747Z,13.93
2022-09-15T08:58:46.431Z,15.10
2022-09-15T09:01:32.300Z,14.60
2022-09-15T09:04:24.824Z,9.23
2022-09-15T09:07:06.985Z,12.38
2022-09-15T09:09:47.282Z,15.07
2022-09-15T09:12:26.612Z,12.68
2022-09-15T09:14:53.709Z,9.80
2022-09-15T09:17:31.557Z,9.05
2022-09-15T09:20:04.214Z,12.57
2022-09-15T09:22:37.549Z,8.45
2022-09-15T09:25:21.264Z,8.88
2022-09-15T09:27:52.874Z,10.45
2022-09-15T09:30:20.850Z,8.98
2022-09-15T09:32:51.037Z,13.40
2022-09-15T09:35:21.659Z,10.23
2022-09-15T09:37:49.972Z,8.70
2022-09-15T09:40:17.703Z,10.07
2022-09-15T09:42:45.376Z,7.93
2022-09-15T09:45:13.784Z,9.35
2022-09-15T09:47:41.918Z,8.40
2022-09-15T09:50:32.395Z,8.32
2022-09-15T09:52:59.781Z,10.48
2022-09-15T09:55:28.461Z,5.32
2022-09-15T09:58:11.463Z,8.85
2022-09-15T10:00:39.754Z,8.20
2022-09-15T10:03:30.572Z,9.13
2022-09-15T10:06:02.059Z,6.15
2022-09-15T10:08:29.421Z,7.43
2022-09-15T10:11:04.697Z,6.85
2022-09-15T10:13:32.085Z,7.65
2022-09-15T10:16:01.451Z,7.70
2022-09-15T10:18:33.523Z,7.40
2022-09-15T10:21:01.770Z,5.70
2022-09-15T10:23:30.112Z,8.73
2022-09-15T10:26:15.654Z,9.30
2022-09-15T10:28:43.099Z,9.77
2022-09-15T10:31:11.285Z,8.30
2022-09-15T10:33:42.625Z,10.88
2022-09-15T10:36:14.048Z,9.07
2022-09-15T10:38:48.953Z,6.50
2022-09-15T10:41:29.158Z,6.50
2022-09-15T10:44:14.750Z,5.85
2022-09-15T10:46:59.423Z,7.80
2022-09-15T10:49:29.510Z,8.85
2022-09-15T10:52:02.432Z,7.90
2022-09-15T10:54:52.562Z,4.88
2022-09-15T10:57:38.497Z,6.45
2022-09-15T11:00:09.150Z,5.13
2022-09-15T11:02:45.233Z,4.63
2022-09-15T11:05:24.269Z,5.47
2022-09-15T11:08:00.225Z,6.78
2022-09-15T11:10:27.305Z,3.85
2022-09-15T11:12:54.403Z,5.03
2022-09-15T11:15:40.060Z,7.55
2022-09-15T11:18:10.437Z,6.60
2022-09-15T11:20:49.434Z,5.88
2022-09-15T11:23:22.047Z,5.22
2022-09-15T11:25:56.937Z,3.55
2022-09-15T11:28:27.146Z,6.45
2022-09-15T11:30:57.767Z,4.60
2022-09-15T11:33:25.416Z,4.05
2022-09-15T11:35:57.174Z,6.68
2022-09-15T11:38:43.070Z,3.50
2022-09-15T11:41:12.036Z,6.45
2022-09-15T11:43:46.155Z,5.60
2022-09-15T11:46:19.828Z,4.63
2022-09-15T11:48:58.112Z,4.45
2022-09-15T11:51:26.089Z,4.18
2022-09-15T11:53:58.925Z,4.40
2022-09-15T11:56:31.441Z,4.93
2022-09-15T11:58:58.525Z,7.20
2022-09-15T12:01:27.207Z,8.07
2022-09-15T12:03:57.896Z,5.65
2022-09-15T12:06:27.910Z,4.05
2022-09-15T12:09:00.771Z,4.22
2022-09-15T12:11:29.186Z,4.43
2022-09-15T12:13:56.574Z,2.80
2022-09-15T12:16:24.339Z,3.83
2022-09-15T12:18:56.765Z,4.25
2022-09-15T12:21:23.893Z,5.30
2022-09-15T12:24:14.220Z,4.43
2022-09-15T12:26:43.285Z,3.80
2022-09-15T12:29:22.729Z,4.05
2022-09-15T12:31:49.832Z,3.40
2022-09-15T12:34:26.005Z,3.13
2022-09-15T12:36:54.002Z,4.43
2022-09-15T12:39:27.259Z,2.80
2022-09-15T12:42:05.272Z,5.40
2022-09-15T12:44:32.328Z,5.10
2022-09-15T12:47:00.091Z,4.22
2022-09-15T12:49:30.793Z,4.63
2022-09-15T12:51:58.499Z,3.17
2022-09-15T12:54:30.918Z,5.20
2022-09-15T12:56:58.274Z,8.55
2022-09-15T12:59:26.658Z,6.25
2022-09-15T13:01:54.380Z,4.57
2022-09-15T13:04:40.351Z,4.03
2022-09-15T13:07:17.133Z,5.07
2022-09-15T13:09:45.558Z,4.07
2022-09-15T13:12:17.863Z,4.57
2022-09-15T13:14:48.288Z,5.88
2022-09-15T13:17:17.629Z,5.22
2022-09-15T13:19:46.847Z,6.10
2022-09-15T13:22:16.767Z,9.38
2022-09-15T13:25:02.972Z,7.07
2022-09-15T13:27:34.328Z,6.05
2022-09-15T13:30:19.715Z,3.20
2022-09-15T13:32:56.167Z,4.85
2022-09-15T13:35:23.289Z,6.78
2022-09-15T13:38:20.009Z,6.47
2022-09-15T13:40:50.444Z,5.95
2022-09-15T13:43:17.572Z,6.10
2022-09-15T13:46:08.291Z,4.43
2022-09-15T13:48:53.939Z,7.18
2022-09-15T13:51:25.961Z,7.50
2022-09-15T13:54:15.210Z,7.45
2022-09-15T13:56:42.452Z,6.78
2022-09-15T13:59:16.983Z,7.75
2022-09-15T14:01:45.271Z,7.70
2022-09-15T14:04:15.181Z,5.70
2022-09-15T14:06:43.976Z,7.72
2022-09-15T14:09:19.724Z,5.93
2022-09-15T14:11:51.986Z,7.90
2022-09-15T14:14:28.213Z,4.90
2022-09-15T14:16:57.420Z,6.07
2022-09-15T14:19:33.856Z,6.50
2022-09-15T14:22:26.078Z,7.15
2022-09-15T14:24:54.030Z,8.70
2022-09-15T14:27:25.533Z,6.75
2022-09-15T14:29:55.337Z,7.38
2022-09-15T14:32:22.663Z,6.35
2022-09-15T14:34:51.037Z,7.68
2022-09-15T14:37:18.148Z,9.48
2022-09-15T14:39:49.951Z,6.32
2022-09-15T14:42:29.440Z,6.97
2022-09-15T14:47:44.560Z,7.78
2022-09-15T14:50:11.729Z,8.40
2022-09-15T14:52:41.096Z,7.80
2022-09-15T14:55:12.454Z,9.18
2022-09-15T14:57:40.947Z,8.93
2022-09-15T15:00:10.185Z,6.97
2022-09-15T15:02:40.132Z,8.77
2022-09-15T15:05:10.097Z,10.55
2022-09-15T15:07:38.477Z,9.77
2022-09-15T15:10:08.356Z,9.32
2022-09-15T15:12:37.646Z,7.43
2022-09-15T15:15:05.649Z,7.55
2022-09-15T15:17:42.977Z,7.78
2022-09-15T15:20:10.093Z,8.98
2022-09-15T15:22:38.105Z,8.32
2022-09-15T15:25:24.519Z,8.25
2022-09-15T15:27:53.109Z,7.75
2022-09-15T15:30:31.973Z,8.43
2022-09-15T15:33:25.385Z,8.15
2022-09-15T15:36:21.814Z,8.20
2022-09-15T15:38:56.457Z,9.87
2022-09-15T15:41:25.493Z,9.38
2022-09-15T15:44:24.481Z,8.98
2022-09-15T15:46:56.149Z,7.22
2022-09-15T15:49:27.693Z,8.90
2022-09-15T15:51:55.516Z,9.00
2022-09-15T15:54:23.082Z,9.40
2022-09-15T15:56:50.285Z,7.03
2022-09-15T15:59:18.048Z,10.10
2022-09-15T16:01:47.540Z,7.90
2022-09-15T16:04:14.695Z,7.23
2022-09-15T16:06:42.123Z,7.37
2022-09-15T16:09:09.258Z,10.53
2022-09-15T16:11:36.424Z,7.73
2022-09-15T16:14:03.888Z,8.23
2022-09-15T16:16:31.128Z,6.70
2022-09-15T16:18:58.275Z,8.60
2022-09-15T16:21:30.456Z,7.07
2022-09-15T16:23:57.556Z,8.10
2022-09-15T16:26:25.023Z,8.13
2022-09-15T16:28:52.472Z,10.20
2022-09-15T16:31:19.751Z,7.50
2022-09-15T16:33:46.997Z,9.30
2022-09-15T16:36:15.447Z,7.63
2022-09-15T16:38:43.197Z,12.47
2022-09-15T16:41:17.537Z,7.50
2022-09-15T16:43:45.223Z,7.20
2022-09-15T16:46:13.017Z,10.87
2022-09-15T16:48:41.196Z,8.23
2022-09-15T16:53:58.899Z,7.90
2022-09-15T16:56:26.976Z,9.50
2022-09-15T16:58:59.622Z,8.00
2022-09-15T17:01:27.693Z,9.93
2022-09-15T17:03:54.944Z,7.63
2022-09-15T17:06:22.366Z,7.53
2022-09-15T17:08:49.780Z,9.00
2022-09-15T17:11:18.116Z,7.97
2022-09-15T17:13:45.797Z,8.47
2022-09-15T17:16:14.145Z,7.90
2022-09-15T17:18:41.280Z,11.00
2022-09-15T17:21:10.887Z,9.13
2022-09-15T17:23:39.126Z,12.67
2022-09-15T17:26:07.354Z,7.93
2022-09-15T17:28:36.471Z,7.73
2022-09-15T17:31:04.987Z,9.83
2022-09-15T17:33:33.100Z,8.83
2022-09-15T17:36:00.570Z,9.67
2022-09-15T17:38:27.962Z,7.53
2022-09-15T17:40:55.473Z,9.33
2022-09-15T17:43:24.369Z,11.50
2022-09-15T17:45:51.775Z,10.03
2022-09-15T17:48:19.306Z,9.83
2022-09-15T17:50:48.591Z,9.30
2022-09-15T17:53:17.090Z,10.37
2022-09-15T17:55:44.682Z,9.27
2022-09-15T17:58:12.289Z,8.90
2022-09-15T18:00:40.318Z,13.50
2022-09-15T18:03:16.380Z,10.10
2022-09-15T18:05:43.484Z,10.70
2022-09-15T18:08:10.842Z,10.43
2022-09-15T18:10:37.938Z,9.50
2022-09-15T18:13:05.740Z,10.77
2022-09-15T18:15:34.415Z,10.43
2022-09-15T18:18:04.101Z,12.70
2022-09-15T18:20:32.809Z,10.20
2022-09-15T18:23:00.213Z,12.10
2022-09-15T18:25:29.772Z,10.30
2022-09-15T18:27:57.446Z,10.97
2022-09-15T18:30:26.379Z,12.17
2022-09-15T18:32:53.557Z,9.40
2022-09-15T18:35:21.359Z,9.33
2022-09-15T18:37:49.345Z,13.57
2022-09-15T18:40:18.389Z,10.13
2022-09-15T18:42:45.880Z,11.70
2022-09-15T18:45:14.095Z,11.43
2022-09-15T18:47:42.474Z,11.83
2022-09-15T18:50:11.137Z,12.20
2022-09-15T18:52:39.344Z,12.47
2022-09-15T18:55:07.628Z,9.67
2022-09-15T18:57:35.725Z,15.20
2022-09-15T19:00:05.150Z,13.33
2022-09-15T19:02:32.422Z,11.53
2022-09-15T19:04:59.606Z,15.07
2022-09-15T19:07:28.582Z,14.10
2022-09-15T19:09:56.823Z,11.40
2022-09-15T19:12:24.295Z,14.77
2022-09-15T19:14:51.574Z,10.60
2022-09-15T19:17:18.692Z,14.73
2022-09-15T19:19:46.465Z,13.90
2022-09-15T19:22:13.735Z,11.43
2022-09-15T19:24:40.867Z,10.27
2022-09-15T19:27:08.673Z,11.03
2022-09-15T19:29:36.771Z,10.53
2022-09-15T19:32:05.041Z,11.63
2022-09-15T19:34:32.405Z,15.47
2022-09-15T19:36:59.521Z,13.40
2022-09-15T19:39:26.625Z,10.97
2022-09-15T19:41:53.729Z,13.57
2022-09-15T19:44:20.913Z,15.30
2022-09-15T19:46:48.177Z,12.70
2022-09-15T19:49:15.746Z,11.60
2022-09-15T19:51:43.356Z,13.07
2022-09-15T19:54:10.676Z,12.97
2022-09-15T19:56:38.713Z,11.63
2022-09-15T19:59:06.509Z,15.40
2022-09-15T20:01:33.738Z,15.23
2022-09-15T20:04:01.969Z,9.60
2022-09-15T20:06:32.783Z,11.40
2022-09-15T20:09:00.218Z,14.47
2022-09-15T20:11:28.289Z,11.13
2022-09-15T20:13:55.733Z,11.80
2022-09-15T20:16:24.070Z,12.33
2022-09-15T20:18:52.234Z,13.57
2022-09-15T20:21:32.482Z,13.13
2022-09-15T20:24:08.274Z,13.83
2022-09-15T20:26:35.530Z,14.00
2022-09-15T20:29:03.219Z,14.27
2022-09-15T20:31:33.014Z,14.33
2022-09-15T20:34:01.124Z,12.87
2022-09-15T20:36:33.455Z,12.73
2022-09-15T20:39:01.801Z,13.10
2022-09-15T20:41:29.402Z,13.90
2022-09-15T20:43:56.918Z,15.63
2022-09-15T20:46:25.219Z,13.37
2022-09-15T20:48:52.701Z,11.50
2022-09-15T20:51:22.740Z,15.00
2022-09-15T20:53:51.327Z,17.53
2022-09-15T20:56:21.118Z,12.20
2022-09-15T20:58:48.267Z,12.37
2022-09-15T21:01:20.211Z,11.27
2022-09-15T21:03:47.926Z,13.07
2022-09-15T21:06:16.170Z,13.73
2022-09-15T21:08:43.636Z,11.27
2022-09-15T21:11:11.452Z,16.27
2022-09-15T21:13:40.124Z,12.03
2022-09-15T21:16:08.855Z,11.33
2022-09-15T21:18:37.047Z,11.77
2022-09-15T21:21:11.820Z,12.67
2022-09-15T21:23:43.314Z,12.37
2022-09-15T21:26:14.661Z,10.90
2022-09-15T21:28:43.448Z,10.10
2022-09-15T21:31:17.946Z,13.53
2022-09-15T21:33:46.302Z,11.23
2022-09-15T21:36:14.735Z,11.90
2022-09-15T21:38:43.986Z,10.07
2022-09-15T21:41:15.606Z,10.70
2022-09-15T21:43:43.596Z,13.23
2022-09-15T21:46:12.551Z,12.17
2022-09-15T21:48:40.246Z,13.43
2022-09-15T21:51:07.952Z,12.47
2022-09-15T21:53:35.109Z,15.23
2022-09-15T21:56:03.438Z,10.27
2022-09-15T21:58:37.921Z,12.30
2022-09-15T22:01:19.945Z,11.70
2022-09-15T22:03:51.523Z,14.07
2022-09-15T22:06:19.470Z,13.10
2022-09-15T22:08:46.797Z,13.30
2022-09-15T22:11:14.252Z,12.30
2022-09-15T22:13:42.852Z,11.83
2022-09-15T22:16:20.441Z,15.83
2022-09-15T22:18:48.096Z,11.57
2022-09-15T22:21:15.207Z,12.80
2022-09-15T22:23:42.928Z,13.00
2022-09-15T22:26:11.355Z,10.63
2022-09-15T22:28:38.523Z,13.73
2022-09-15T22:31:06.955Z,14.23
2022-09-15T22:33:34.422Z,9.77
2022-09-15T22:36:01.585Z,14.90
2022-09-15T22:38:29.455Z,12.93
2022-09-15T22:40:57.093Z,11.87
2022-09-15T22:43:24.273Z,11.10
2022-09-15T22:45:52.213Z,14.60
2022-09-15T22:48:19.708Z,14.27
2022-09-15T22:50:47.117Z,14.13
2022-09-15T22:53:14.301Z,10.13
2022-09-15T22:55:41.481Z,11.50
2022-09-15T22:58:08.801Z,13.13
2022-09-15T23:00:38.033Z,12.13
2022-09-15T23:03:05.473Z,10.97
2022-09-15T23:05:32.616Z,11.40
2022-09-15T23:07:59.772Z,13.93
2022-09-15T23:10:26.974Z,13.50
2022-09-15T23:12:54.396Z,13.83
2022-09-15T23:15:21.505Z,11.63
2022-09-15T23:17:48.650Z,14.23
2022-09-15T23:20:15.853Z,12.83
2022-09-15T23:22:42.993Z,13.37
2022-09-15T23:25:10.123Z,14.47
2022-09-15T23:27:37.266Z,12.57
2022-09-15T23:30:04.558Z,13.40
2022-09-15T23:32:31.721Z,13.63
2022-09-15T23:34:58.856Z,14.27
2022-09-15T23:37:26.100Z,16.47
2022-09-15T23:39:53.243Z,16.33
2022-09-15T23:42:20.421Z,14.17
2022-09-15T23:44:47.610Z,13.90
2022-09-15T23:47:14.807Z,14.23
2022-09-15T23:49:41.940Z,14.37
2022-09-15T23:52:09.055Z,14.03
2022-09-15T23:54:36.156Z,12.83
2022-09-15T23:57:03.317Z,16.93
2022-09-15T23:59:30.422Z,14.30
